Terminal Aerodrome Forecast
Issued by NWS Charleston, WV

Home | Current Version | Previous Version | Text Only | Print | Product List | Glossary On
Versions: 1 2 3 4 5 6 7 8 9 10 11 12 13 14 15 16 17 18 19 20 21 22 23 24 25
000
FTUS41 KRLX 300538
TAFHTS
TAF
KHTS 300538Z 3006/3106 VRB03KT 6SM BR BKN100
      TEMPO 3008/3011 4SM BR
     FM301400 21006KT P6SM BKN035
     FM301800 21007KT P6SM VCTS BKN035CB
     FM302100 20006KT P6SM BKN040
     FM302200 19005KT P6SM BKN045
     FM310200 15004KT P6SM SCT060=

USA.gov is the U.S. government's official web portal to all federal, state and local government web resources and services.